Bloomington, Wisconsin
Current Conditions -  °F | °C
As of 10:35 AM on Saturday 22 Nov 2014 (Local Time) from KPDC Reporting Station
Haze Haze  
Wind Chill: 37°   Ceiling: 400
Heat Index: 37°   Visibility: 1mi
Dew Point: 36°   Wind: 0mph
Humidity: 94%   Direction: NA
Pressure: 29.86"   Gusts: NA
Location:  42.89°N, 90.92°W
Report Text: KPDC 221635Z AUTO 00000KT 1SM BR OVC004 03/02 A2986 RMK AO2 T00300021
Loading
Personal Weather Stations






























Interactive Weather Map New forecast layout! Learn more

10-Day Weather Forecast

Advertisements
Track Severe Weather on mobile